Harrisonville, Illinois
Current Conditions -  °F | °C
As of 11:53 PM on Monday 26 Jan 2015 (Local Time) from KCPS Reporting Station
Overcast Overcast  
Wind Chill: 31°   Ceiling: 5500
Heat Index: 35°   Visibility: 10mi
Dew Point: 30°   Wind: 5mph
Humidity: 82%   Direction: 250°WSW
Pressure: 29.9"   Gusts: NA
Location:  38.2838°N, 90.3044°W
Report Text: KCPS 270553Z AUTO 25004KT 10SM OVC055 02/M01 A2990 RMK AO2 SLP129 T00171011 10022 20006 400441028 57008 TSNO
Loading
Personal Weather Stations






























Interactive Weather Map New forecast layout! Learn more

10-Day Weather Forecast

Advertisements
Track Severe Weather on mobile